sensor_id;sensor_type;location;lat;lon;timestamp;pressure;altitude;pressure_sealevel;temperature;humidity
11343;BME280;5726;42.160;24.746;2023-04-16T00:01:53;99070.56;;;15.85;49.94
11343;BME280;5726;42.160;24.746;2023-04-16T00:04:19;99056.50;;;15.80;50.24
11343;BME280;5726;42.160;24.746;2023-04-16T00:06:44;99065.16;;;15.85;50.08
11343;BME280;5726;42.160;24.746;2023-04-16T00:09:10;99063.97;;;15.95;50.15
11343;BME280;5726;42.160;24.746;2023-04-16T00:11:35;99066.34;;;15.96;49.93
11343;BME280;5726;42.160;24.746;2023-04-16T00:14:00;99059.84;;;15.77;50.57
11343;BME280;5726;42.160;24.746;2023-04-16T00:16:26;99054.13;;;15.78;50.45
11343;BME280;5726;42.160;24.746;2023-04-16T00:18:52;99050.34;;;16.03;49.63
11343;BME280;5726;42.160;24.746;2023-04-16T00:21:17;99050.78;;;15.93;50.27
11343;BME280;5726;42.160;24.746;2023-04-16T00:23:43;99064.53;;;16.00;49.68
11343;BME280;5726;42.160;24.746;2023-04-16T00:26:09;99063.09;;;16.03;50.04
11343;BME280;5726;42.160;24.746;2023-04-16T00:28:35;99063.00;;;15.79;50.58
11343;BME280;5726;42.160;24.746;2023-04-16T00:31:00;99072.28;;;15.90;50.33
11343;BME280;5726;42.160;24.746;2023-04-16T00:33:26;99073.94;;;15.82;50.93
11343;BME280;5726;42.160;24.746;2023-04-16T00:35:51;99071.72;;;15.84;50.84
11343;BME280;5726;42.160;24.746;2023-04-16T00:38:17;99075.19;;;15.85;50.68
11343;BME280;5726;42.160;24.746;2023-04-16T00:40:42;99075.09;;;15.81;50.77
11343;BME280;5726;42.160;24.746;2023-04-16T00:43:08;99080.22;;;15.75;51.05
11343;BME280;5726;42.160;24.746;2023-04-16T00:45:33;99085.28;;;15.96;50.61
11343;BME280;5726;42.160;24.746;2023-04-16T00:47:59;99090.00;;;15.99;49.98
11343;BME280;5726;42.160;24.746;2023-04-16T00:50:25;99088.47;;;16.10;50.25
11343;BME280;5726;42.160;24.746;2023-04-16T00:52:51;99095.25;;;16.16;50.06
11343;BME280;5726;42.160;24.746;2023-04-16T00:55:17;99085.16;;;16.25;49.68
11343;BME280;5726;42.160;24.746;2023-04-16T00:57:44;99076.81;;;16.30;49.86
11343;BME280;5726;42.160;24.746;2023-04-16T01:00:10;99078.84;;;16.33;49.89
11343;BME280;5726;42.160;24.746;2023-04-16T01:02:36;99083.81;;;16.31;49.59
11343;BME280;5726;42.160;24.746;2023-04-16T01:05:03;99074.69;;;16.35;49.50
11343;BME280;5726;42.160;24.746;2023-04-16T01:07:29;99063.84;;;16.35;49.65
11343;BME280;5726;42.160;24.746;2023-04-16T01:09:55;99066.91;;;16.34;49.56
11343;BME280;5726;42.160;24.746;2023-04-16T01:12:20;99070.06;;;16.36;49.37
11343;BME280;5726;42.160;24.746;2023-04-16T01:14:46;99077.06;;;16.37;49.73
11343;BME280;5726;42.160;24.746;2023-04-16T01:17:11;99072.41;;;16.37;49.85
11343;BME280;5726;42.160;24.746;2023-04-16T01:19:37;99068.84;;;16.45;49.68
11343;BME280;5726;42.160;24.746;2023-04-16T01:22:03;99083.13;;;16.34;49.98
11343;BME280;5726;42.160;24.746;2023-04-16T01:24:29;99075.91;;;16.26;50.44
11343;BME280;5726;42.160;24.746;2023-04-16T01:26:57;99075.78;;;16.23;51.28
11343;BME280;5726;42.160;24.746;2023-04-16T01:29:23;99082.88;;;16.27;50.92
11343;BME280;5726;42.160;24.746;2023-04-16T01:31:49;99081.59;;;15.80;52.30
11343;BME280;5726;42.160;24.746;2023-04-16T01:34:14;99067.44;;;15.63;53.28
11343;BME280;5726;42.160;24.746;2023-04-16T01:36:40;99073.06;;;15.58;53.43
11343;BME280;5726;42.160;24.746;2023-04-16T01:39:05;99079.78;;;15.73;52.92
11343;BME280;5726;42.160;24.746;2023-04-16T01:41:30;99071.44;;;15.77;53.05
11343;BME280;5726;42.160;24.746;2023-04-16T01:43:56;99073.59;;;16.16;52.04
11343;BME280;5726;42.160;24.746;2023-04-16T01:46:30;99074.47;;;15.96;52.52
11343;BME280;5726;42.160;24.746;2023-04-16T01:48:56;99076.53;;;15.79;52.50
11343;BME280;5726;42.160;24.746;2023-04-16T01:51:22;99070.84;;;15.72;52.97
11343;BME280;5726;42.160;24.746;2023-04-16T01:53:51;99070.69;;;15.57;53.69
11343;BME280;5726;42.160;24.746;2023-04-16T01:56:16;99070.44;;;15.30;54.81
11343;BME280;5726;42.160;24.746;2023-04-16T01:58:42;99054.81;;;15.35;54.29
11343;BME280;5726;42.160;24.746;2023-04-16T02:01:08;99068.50;;;15.10;55.40
11343;BME280;5726;42.160;24.746;2023-04-16T02:03:33;99050.09;;;15.03;55.88
11343;BME280;5726;42.160;24.746;2023-04-16T02:05:59;99056.16;;;15.00;55.88
11343;BME280;5726;42.160;24.746;2023-04-16T02:08:26;99052.56;;;14.96;56.34
11343;BME280;5726;42.160;24.746;2023-04-16T02:10:51;99057.25;;;15.28;55.17
11343;BME280;5726;42.160;24.746;2023-04-16T02:13:17;99060.53;;;15.54;53.92
11343;BME280;5726;42.160;24.746;2023-04-16T02:15:46;99057.28;;;14.99;56.50
11343;BME280;5726;42.160;24.746;2023-04-16T02:18:12;99052.81;;;15.03;55.91
11343;BME280;5726;42.160;24.746;2023-04-16T02:20:42;99059.59;;;15.09;55.31
11343;BME280;5726;42.160;24.746;2023-04-16T02:23:08;99060.53;;;15.13;55.37
11343;BME280;5726;42.160;24.746;2023-04-16T02:25:41;99066.44;;;15.35;53.97
11343;BME280;5726;42.160;24.746;2023-04-16T02:28:09;99065.03;;;14.81;56.25
11343;BME280;5726;42.160;24.746;2023-04-16T02:30:35;99066.22;;;14.63;57.33
11343;BME280;5726;42.160;24.746;2023-04-16T02:33:04;99066.31;;;14.75;56.34
11343;BME280;5726;42.160;24.746;2023-04-16T02:35:32;99060.94;;;14.75;56.08
11343;BME280;5726;42.160;24.746;2023-04-16T02:37:58;99066.84;;;14.68;56.36
11343;BME280;5726;42.160;24.746;2023-04-16T02:40:24;99072.50;;;14.75;56.50
11343;BME280;5726;42.160;24.746;2023-04-16T02:42:50;99067.16;;;14.67;56.94
11343;BME280;5726;42.160;24.746;2023-04-16T02:45:16;99077.56;;;14.48;57.49
11343;BME280;5726;42.160;24.746;2023-04-16T02:47:41;99068.63;;;14.56;58.12
11343;BME280;5726;42.160;24.746;2023-04-16T02:50:07;99068.72;;;14.39;59.74
11343;BME280;5726;42.160;24.746;2023-04-16T02:52:32;99074.28;;;14.34;61.02
11343;BME280;5726;42.160;24.746;2023-04-16T02:54:58;99083.16;;;14.43;60.87
11343;BME280;5726;42.160;24.746;2023-04-16T02:57:24;99078.44;;;14.23;62.08
11343;BME280;5726;42.160;24.746;2023-04-16T02:59:50;99077.47;;;14.28;62.07
11343;BME280;5726;42.160;24.746;2023-04-16T03:02:15;99076.34;;;14.37;61.20
11343;BME280;5726;42.160;24.746;2023-04-16T03:04:41;99081.78;;;14.20;61.88
11343;BME280;5726;42.160;24.746;2023-04-16T03:07:06;99076.72;;;14.02;63.19
11343;BME280;5726;42.160;24.746;2023-04-16T03:09:33;99087.81;;;14.17;61.94
11343;BME280;5726;42.160;24.746;2023-04-16T03:11:59;99078.16;;;13.99;62.97
11343;BME280;5726;42.160;24.746;2023-04-16T03:14:26;99073.44;;;13.80;64.26
11343;BME280;5726;42.160;24.746;2023-04-16T03:16:51;99085.59;;;14.19;61.75
11343;BME280;5726;42.160;24.746;2023-04-16T03:19:17;99084.41;;;13.75;64.44
11343;BME280;5726;42.160;24.746;2023-04-16T03:21:42;99083.75;;;13.61;65.79
11343;BME280;5726;42.160;24.746;2023-04-16T03:24:08;99084.41;;;13.66;65.35
11343;BME280;5726;42.160;24.746;2023-04-16T03:26:33;99084.03;;;13.84;64.34
11343;BME280;5726;42.160;24.746;2023-04-16T03:28:58;99086.75;;;13.93;63.58
11343;BME280;5726;42.160;24.746;2023-04-16T03:31:26;99086.06;;;14.13;62.76
11343;BME280;5726;42.160;24.746;2023-04-16T03:33:51;99092.44;;;13.83;64.38
11343;BME280;5726;42.160;24.746;2023-04-16T03:36:17;99084.47;;;14.29;62.02
11343;BME280;5726;42.160;24.746;2023-04-16T03:38:42;99093.19;;;14.26;62.30
11343;BME280;5726;42.160;24.746;2023-04-16T03:41:08;99101.28;;;14.26;62.43
11343;BME280;5726;42.160;24.746;2023-04-16T03:43:33;99100.31;;;14.30;61.64
11343;BME280;5726;42.160;24.746;2023-04-16T03:45:58;99100.63;;;14.37;61.70
11343;BME280;5726;42.160;24.746;2023-04-16T03:48:24;99104.41;;;14.44;60.88
11343;BME280;5726;42.160;24.746;2023-04-16T03:50:49;99105.38;;;14.40;60.83
11343;BME280;5726;42.160;24.746;2023-04-16T03:53:15;99102.88;;;14.27;61.86
11343;BME280;5726;42.160;24.746;2023-04-16T03:55:40;99112.91;;;13.92;64.10
11343;BME280;5726;42.160;24.746;2023-04-16T03:58:06;99114.97;;;13.95;63.92
11343;BME280;5726;42.160;24.746;2023-04-16T04:00:33;99116.06;;;13.94;65.05
11343;BME280;5726;42.160;24.746;2023-04-16T04:02:58;99121.00;;;14.09;64.79
11343;BME280;5726;42.160;24.746;2023-04-16T04:05:23;99104.59;;;14.31;63.21
11343;BME280;5726;42.160;24.746;2023-04-16T04:07:49;99114.44;;;14.19;63.91
11343;BME280;5726;42.160;24.746;2023-04-16T04:10:14;99117.91;;;14.36;64.03
11343;BME280;5726;42.160;24.746;2023-04-16T04:12:40;99121.06;;;14.38;63.61
11343;BME280;5726;42.160;24.746;2023-04-16T04:15:06;99126.50;;;14.21;64.48
11343;BME280;5726;42.160;24.746;2023-04-16T04:17:32;99119.84;;;13.93;65.81
11343;BME280;5726;42.160;24.746;2023-04-16T04:19:57;99124.47;;;14.18;65.39
11343;BME280;5726;42.160;24.746;2023-04-16T04:22:22;99121.28;;;13.99;66.85
11343;BME280;5726;42.160;24.746;2023-04-16T04:24:48;99121.63;;;14.06;66.14
11343;BME280;5726;42.160;24.746;2023-04-16T04:27:13;99124.31;;;13.89;67.09
11343;BME280;5726;42.160;24.746;2023-04-16T04:29:39;99123.19;;;13.99;66.98
11343;BME280;5726;42.160;24.746;2023-04-16T04:32:04;99125.25;;;14.02;66.87
11343;BME280;5726;42.160;24.746;2023-04-16T04:34:30;99123.66;;;14.72;69.62
11343;BME280;5726;42.160;24.746;2023-04-16T04:36:55;99130.88;;;14.88;68.27
11343;BME280;5726;42.160;24.746;2023-04-16T04:39:21;99125.53;;;15.08;66.37
11343;BME280;5726;42.160;24.746;2023-04-16T04:41:47;99107.84;;;14.90;64.26
11343;BME280;5726;42.160;24.746;2023-04-16T04:44:12;99109.06;;;14.93;62.95
11343;BME280;5726;42.160;24.746;2023-04-16T04:46:38;99113.94;;;14.79;63.57
11343;BME280;5726;42.160;24.746;2023-04-16T04:49:04;99122.53;;;14.73;64.01
11343;BME280;5726;42.160;24.746;2023-04-16T04:51:30;99107.69;;;14.87;63.54
11343;BME280;5726;42.160;24.746;2023-04-16T04:53:55;99119.66;;;14.78;63.18
11343;BME280;5726;42.160;24.746;2023-04-16T04:56:21;99118.06;;;14.77;63.26
11343;BME280;5726;42.160;24.746;2023-04-16T04:58:48;99116.75;;;14.82;62.74
11343;BME280;5726;42.160;24.746;2023-04-16T05:01:14;99121.50;;;14.85;62.66
11343;BME280;5726;42.160;24.746;2023-04-16T05:03:39;99111.13;;;14.96;61.73
11343;BME280;5726;42.160;24.746;2023-04-16T05:06:06;99119.56;;;14.94;62.20
11343;BME280;5726;42.160;24.746;2023-04-16T05:08:31;99114.78;;;15.00;61.96
11343;BME280;5726;42.160;24.746;2023-04-16T05:10:57;99137.34;;;14.95;63.80
11343;BME280;5726;42.160;24.746;2023-04-16T05:13:22;99126.34;;;15.29;63.81
11343;BME280;5726;42.160;24.746;2023-04-16T05:15:48;99125.13;;;15.47;61.30
11343;BME280;5726;42.160;24.746;2023-04-16T05:18:13;99121.09;;;15.53;59.28
11343;BME280;5726;42.160;24.746;2023-04-16T05:20:39;99129.38;;;15.28;60.70
11343;BME280;5726;42.160;24.746;2023-04-16T05:23:04;99137.03;;;14.97;62.55
11343;BME280;5726;42.160;24.746;2023-04-16T05:25:30;99127.19;;;14.92;63.88
11343;BME280;5726;42.160;24.746;2023-04-16T05:27:55;99128.06;;;15.05;64.32
11343;BME280;5726;42.160;24.746;2023-04-16T05:30:21;99135.59;;;15.28;63.77
11343;BME280;5726;42.160;24.746;2023-04-16T05:32:46;99135.25;;;15.50;61.43
11343;BME280;5726;42.160;24.746;2023-04-16T05:35:12;99132.81;;;15.97;60.71
11343;BME280;5726;42.160;24.746;2023-04-16T05:37:37;99133.28;;;15.99;61.82
11343;BME280;5726;42.160;24.746;2023-04-16T05:40:03;99138.19;;;16.18;60.60
11343;BME280;5726;42.160;24.746;2023-04-16T05:42:28;99148.78;;;16.43;57.31
11343;BME280;5726;42.160;24.746;2023-04-16T05:44:54;99151.28;;;16.60;56.26
11343;BME280;5726;42.160;24.746;2023-04-16T05:47:19;99143.09;;;16.80;56.16
11343;BME280;5726;42.160;24.746;2023-04-16T05:49:45;99150.88;;;17.17;55.35
11343;BME280;5726;42.160;24.746;2023-04-16T05:52:11;99147.78;;;17.66;53.62
11343;BME280;5726;42.160;24.746;2023-04-16T05:54:36;99136.44;;;18.15;50.88
11343;BME280;5726;42.160;24.746;2023-04-16T05:57:02;99136.56;;;18.07;50.03
11343;BME280;5726;42.160;24.746;2023-04-16T05:59:28;99140.31;;;18.02;51.37
11343;BME280;5726;42.160;24.746;2023-04-16T06:01:55;99148.41;;;18.41;48.75
11343;BME280;5726;42.160;24.746;2023-04-16T06:04:20;99139.59;;;18.90;48.87
11343;BME280;5726;42.160;24.746;2023-04-16T06:06:46;99134.47;;;19.69;47.51
11343;BME280;5726;42.160;24.746;2023-04-16T06:09:11;99136.72;;;20.01;44.86
11343;BME280;5726;42.160;24.746;2023-04-16T06:11:37;99136.69;;;20.39;44.74
11343;BME280;5726;42.160;24.746;2023-04-16T06:14:02;99137.66;;;20.68;43.09
11343;BME280;5726;42.160;24.746;2023-04-16T06:16:27;99128.47;;;20.58;42.95
11343;BME280;5726;42.160;24.746;2023-04-16T06:18:53;99127.88;;;20.45;42.74
11343;BME280;5726;42.160;24.746;2023-04-16T06:21:18;99127.13;;;20.26;43.54
11343;BME280;5726;42.160;24.746;2023-04-16T06:23:44;99118.97;;;20.48;42.74
11343;BME280;5726;42.160;24.746;2023-04-16T06:26:10;99119.28;;;20.65;41.91
11343;BME280;5726;42.160;24.746;2023-04-16T06:28:35;99118.78;;;20.38;42.56
11343;BME280;5726;42.160;24.746;2023-04-16T06:31:01;99102.78;;;19.76;43.68
11343;BME280;5726;42.160;24.746;2023-04-16T06:33:26;99115.84;;;18.87;46.17
11343;BME280;5726;42.160;24.746;2023-04-16T06:35:52;99124.97;;;19.10;46.52
11343;BME280;5726;42.160;24.746;2023-04-16T06:38:17;99116.00;;;19.59;45.25
11343;BME280;5726;42.160;24.746;2023-04-16T06:40:43;99116.13;;;20.00;43.96
11343;BME280;5726;42.160;24.746;2023-04-16T06:43:08;99111.97;;;20.06;43.52
11343;BME280;5726;42.160;24.746;2023-04-16T06:45:34;99107.28;;;20.07;43.57
11343;BME280;5726;42.160;24.746;2023-04-16T06:47:59;99114.41;;;19.39;45.50
11343;BME280;5726;42.160;24.746;2023-04-16T06:50:26;99118.13;;;19.50;45.83
11343;BME280;5726;42.160;24.746;2023-04-16T06:52:53;99124.03;;;20.09;44.70
11343;BME280;5726;42.160;24.746;2023-04-16T06:55:18;99127.31;;;20.36;43.42
11343;BME280;5726;42.160;24.746;2023-04-16T06:57:44;99121.72;;;19.88;45.35
11343;BME280;5726;42.160;24.746;2023-04-16T07:00:10;99124.22;;;20.38;44.22
11343;BME280;5726;42.160;24.746;2023-04-16T07:02:36;99123.09;;;20.61;42.97
11343;BME280;5726;42.160;24.746;2023-04-16T07:05:01;99128.38;;;20.73;42.53
11343;BME280;5726;42.160;24.746;2023-04-16T07:07:27;99124.94;;;20.76;42.58
11343;BME280;5726;42.160;24.746;2023-04-16T07:09:52;99114.72;;;20.51;43.00
11343;BME280;5726;42.160;24.746;2023-04-16T07:12:18;99122.97;;;20.54;43.78
11343;BME280;5726;42.160;24.746;2023-04-16T07:14:44;99121.75;;;20.52;43.85
11343;BME280;5726;42.160;24.746;2023-04-16T07:17:10;99124.28;;;20.82;43.47
11343;BME280;5726;42.160;24.746;2023-04-16T07:19:35;99120.91;;;21.40;42.47
11343;BME280;5726;42.160;24.746;2023-04-16T07:22:01;99121.16;;;21.83;40.74
11343;BME280;5726;42.160;24.746;2023-04-16T07:24:27;99114.81;;;21.76;41.36
11343;BME280;5726;42.160;24.746;2023-04-16T07:26:52;99123.69;;;21.44;41.64
11343;BME280;5726;42.160;24.746;2023-04-16T07:29:17;99114.00;;;20.98;42.06
11343;BME280;5726;42.160;24.746;2023-04-16T07:31:43;99112.28;;;21.38;41.47
11343;BME280;5726;42.160;24.746;2023-04-16T07:34:09;99109.47;;;21.86;40.81
11343;BME280;5726;42.160;24.746;2023-04-16T07:36:35;99111.00;;;22.16;39.75
11343;BME280;5726;42.160;24.746;2023-04-16T07:39:00;99102.28;;;22.04;40.44
11343;BME280;5726;42.160;24.746;2023-04-16T07:41:26;99108.88;;;22.00;40.17
11343;BME280;5726;42.160;24.746;2023-04-16T07:43:52;99110.03;;;21.69;40.41
11343;BME280;5726;42.160;24.746;2023-04-16T07:46:18;99103.97;;;21.54;40.04
11343;BME280;5726;42.160;24.746;2023-04-16T07:48:43;99099.56;;;22.04;39.31
11343;BME280;5726;42.160;24.746;2023-04-16T07:51:09;99093.84;;;21.83;40.25
11343;BME280;5726;42.160;24.746;2023-04-16T07:53:34;99099.22;;;21.76;39.55
11343;BME280;5726;42.160;24.746;2023-04-16T07:56:00;99090.47;;;21.38;41.05
11343;BME280;5726;42.160;24.746;2023-04-16T07:58:25;99087.06;;;21.45;41.09
11343;BME280;5726;42.160;24.746;2023-04-16T08:00:51;99088.66;;;21.46;41.93
11343;BME280;5726;42.160;24.746;2023-04-16T08:03:17;99096.47;;;21.47;41.30
11343;BME280;5726;42.160;24.746;2023-04-16T08:05:42;99088.31;;;20.73;42.66
11343;BME280;5726;42.160;24.746;2023-04-16T08:08:08;99094.34;;;20.63;43.47
11343;BME280;5726;42.160;24.746;2023-04-16T08:10:33;99094.09;;;20.50;43.89
11343;BME280;5726;42.160;24.746;2023-04-16T08:13:00;99089.03;;;20.48;43.81
11343;BME280;5726;42.160;24.746;2023-04-16T08:15:25;99092.66;;;20.56;44.02
11343;BME280;5726;42.160;24.746;2023-04-16T08:17:51;99094.66;;;20.59;43.95
11343;BME280;5726;42.160;24.746;2023-04-16T08:20:17;99092.38;;;20.42;43.74
11343;BME280;5726;42.160;24.746;2023-04-16T08:22:44;99093.06;;;20.58;44.09
11343;BME280;5726;42.160;24.746;2023-04-16T08:25:10;99097.13;;;20.89;42.76
11343;BME280;5726;42.160;24.746;2023-04-16T08:27:35;99100.81;;;20.56;43.61
11343;BME280;5726;42.160;24.746;2023-04-16T08:30:01;99103.28;;;20.42;43.74
11343;BME280;5726;42.160;24.746;2023-04-16T08:32:27;99101.97;;;19.76;45.65
11343;BME280;5726;42.160;24.746;2023-04-16T08:34:52;99099.13;;;20.25;46.33
11343;BME280;5726;42.160;24.746;2023-04-16T08:37:18;99108.50;;;20.50;44.61
11343;BME280;5726;42.160;24.746;2023-04-16T08:39:43;99098.41;;;19.91;45.64
11343;BME280;5726;42.160;24.746;2023-04-16T08:42:17;99106.22;;;20.11;45.58
11343;BME280;5726;42.160;24.746;2023-04-16T08:44:47;99089.25;;;19.99;45.41
11343;BME280;5726;42.160;24.746;2023-04-16T08:47:14;99093.53;;;19.62;46.39
11343;BME280;5726;42.160;24.746;2023-04-16T08:49:43;99085.44;;;19.65;46.25
11343;BME280;5726;42.160;24.746;2023-04-16T08:52:18;99085.59;;;19.72;46.02
11343;BME280;5726;42.160;24.746;2023-04-16T08:57:18;99078.38;;;19.99;47.15
11343;BME280;5726;42.160;24.746;2023-04-16T08:59:47;99070.09;;;20.14;47.01
11343;BME280;5726;42.160;24.746;2023-04-16T09:02:14;99070.84;;;20.56;46.33
11343;BME280;5726;42.160;24.746;2023-04-16T09:04:40;99059.84;;;20.49;45.91
11343;BME280;5726;42.160;24.746;2023-04-16T09:07:07;99061.50;;;20.57;44.86
11343;BME280;5726;42.160;24.746;2023-04-16T09:09:34;99056.75;;;20.98;44.47
11343;BME280;5726;42.160;24.746;2023-04-16T09:11:59;99059.19;;;21.03;42.93
11343;BME280;5726;42.160;24.746;2023-04-16T09:14:25;99046.59;;;20.95;42.74
11343;BME280;5726;42.160;24.746;2023-04-16T09:16:52;99040.78;;;21.22;44.24
11343;BME280;5726;42.160;24.746;2023-04-16T09:19:19;99034.19;;;21.53;43.24
11343;BME280;5726;42.160;24.746;2023-04-16T09:21:47;99036.34;;;21.69;41.75
11343;BME280;5726;42.160;24.746;2023-04-16T09:24:12;99033.22;;;21.67;41.73
11343;BME280;5726;42.160;24.746;2023-04-16T09:26:40;99031.28;;;22.04;40.02
11343;BME280;5726;42.160;24.746;2023-04-16T09:29:07;99030.22;;;22.15;40.30
11343;BME280;5726;42.160;24.746;2023-04-16T09:31:33;99018.41;;;22.05;39.65
11343;BME280;5726;42.160;24.746;2023-04-16T09:34:17;99030.72;;;21.88;40.17
11343;BME280;5726;42.160;24.746;2023-04-16T09:36:42;99020.41;;;21.71;38.98
11343;BME280;5726;42.160;24.746;2023-04-16T09:39:18;99023.09;;;21.39;39.48
11343;BME280;5726;42.160;24.746;2023-04-16T09:41:46;99021.16;;;21.68;38.33
11343;BME280;5726;42.160;24.746;2023-04-16T09:44:12;99011.09;;;21.76;38.76
11343;BME280;5726;42.160;24.746;2023-04-16T09:46:40;99025.88;;;21.75;38.46
11343;BME280;5726;42.160;24.746;2023-04-16T09:49:12;99016.97;;;21.81;38.30
11343;BME280;5726;42.160;24.746;2023-04-16T09:51:47;99016.84;;;21.67;38.61
11343;BME280;5726;42.160;24.746;2023-04-16T09:54:12;99018.16;;;21.80;39.91
11343;BME280;5726;42.160;24.746;2023-04-16T09:56:40;99009.41;;;21.64;38.91
11343;BME280;5726;42.160;24.746;2023-04-16T09:59:07;99013.25;;;21.05;40.49
11343;BME280;5726;42.160;24.746;2023-04-16T10:01:33;99009.84;;;21.11;40.06
11343;BME280;5726;42.160;24.746;2023-04-16T10:04:00;99002.81;;;20.85;40.66
11343;BME280;5726;42.160;24.746;2023-04-16T10:06:28;99004.94;;;20.95;41.36
11343;BME280;5726;42.160;24.746;2023-04-16T10:08:53;99006.50;;;21.25;40.38
11343;BME280;5726;42.160;24.746;2023-04-16T10:11:22;99011.69;;;21.33;39.64
11343;BME280;5726;42.160;24.746;2023-04-16T10:13:48;99007.50;;;21.39;39.40
11343;BME280;5726;42.160;24.746;2023-04-16T10:16:14;99021.22;;;21.17;39.61
11343;BME280;5726;42.160;24.746;2023-04-16T10:18:41;99009.09;;;21.44;39.49
11343;BME280;5726;42.160;24.746;2023-04-16T10:21:07;99007.53;;;21.43;38.77
11343;BME280;5726;42.160;24.746;2023-04-16T10:23:37;98997.97;;;20.97;39.77
11343;BME280;5726;42.160;24.746;2023-04-16T10:26:04;99004.16;;;20.94;40.35
11343;BME280;5726;42.160;24.746;2023-04-16T10:28:29;99001.28;;;21.13;40.42
11343;BME280;5726;42.160;24.746;2023-04-16T10:30:56;99006.72;;;21.39;39.81
11343;BME280;5726;42.160;24.746;2023-04-16T10:33:26;98995.63;;;21.54;39.74
11343;BME280;5726;42.160;24.746;2023-04-16T10:36:06;98998.47;;;21.64;39.85
11343;BME280;5726;42.160;24.746;2023-04-16T10:38:31;98984.84;;;21.64;40.09
11343;BME280;5726;42.160;24.746;2023-04-16T10:40:58;98988.22;;;21.55;40.60
11343;BME280;5726;42.160;24.746;2023-04-16T10:43:24;98985.28;;;21.70;40.13
11343;BME280;5726;42.160;24.746;2023-04-16T10:45:50;98987.16;;;21.62;40.87
11343;BME280;5726;42.160;24.746;2023-04-16T10:48:17;99004.72;;;21.65;40.67
11343;BME280;5726;42.160;24.746;2023-04-16T10:50:53;99005.75;;;21.54;41.46
11343;BME280;5726;42.160;24.746;2023-04-16T10:53:26;98999.28;;;21.36;41.41
11343;BME280;5726;42.160;24.746;2023-04-16T10:56:42;99008.81;;;21.49;41.65
11343;BME280;5726;42.160;24.746;2023-04-16T10:58:41;99002.41;;;21.09;41.99
11343;BME280;5726;42.160;24.746;2023-04-16T11:01:11;98990.22;;;21.28;42.42
11343;BME280;5726;42.160;24.746;2023-04-16T11:03:46;98986.19;;;21.19;42.34
11343;BME280;5726;42.160;24.746;2023-04-16T11:06:13;98993.38;;;21.34;42.28
11343;BME280;5726;42.160;24.746;2023-04-16T11:08:39;98989.78;;;21.56;42.40
11343;BME280;5726;42.160;24.746;2023-04-16T11:11:05;98982.84;;;21.61;42.36
11343;BME280;5726;42.160;24.746;2023-04-16T11:13:31;98978.19;;;21.98;42.56
11343;BME280;5726;42.160;24.746;2023-04-16T11:15:57;98981.72;;;22.02;41.98
11343;BME280;5726;42.160;24.746;2023-04-16T11:18:23;98965.19;;;21.88;43.00
11343;BME280;5726;42.160;24.746;2023-04-16T11:20:50;98972.88;;;21.76;43.65
11343;BME280;5726;42.160;24.746;2023-04-16T11:23:15;98969.94;;;21.95;43.18
11343;BME280;5726;42.160;24.746;2023-04-16T11:25:41;98962.09;;;21.90;44.43
11343;BME280;5726;42.160;24.746;2023-04-16T11:28:06;98957.69;;;21.78;45.47
11343;BME280;5726;42.160;24.746;2023-04-16T11:30:36;98941.53;;;21.63;46.38
11343;BME280;5726;42.160;24.746;2023-04-16T11:33:10;98949.34;;;21.64;47.44
11343;BME280;5726;42.160;24.746;2023-04-16T11:35:36;98936.28;;;21.15;48.81
11343;BME280;5726;42.160;24.746;2023-04-16T11:38:04;98934.22;;;21.38;49.21
11343;BME280;5726;42.160;24.746;2023-04-16T11:40:32;98935.88;;;21.46;50.24
11343;BME280;5726;42.160;24.746;2023-04-16T11:43:12;98920.38;;;21.53;49.53
11343;BME280;5726;42.160;24.746;2023-04-16T11:48:23;98907.44;;;21.83;49.60
11343;BME280;5726;42.160;24.746;2023-04-16T11:50:55;98910.09;;;21.76;49.50
11343;BME280;5726;42.160;24.746;2023-04-16T11:53:21;98912.88;;;21.79;50.81
11343;BME280;5726;42.160;24.746;2023-04-16T11:55:46;98908.03;;;21.62;51.08
11343;BME280;5726;42.160;24.746;2023-04-16T11:58:12;98894.88;;;21.39;50.80
11343;BME280;5726;42.160;24.746;2023-04-16T12:00:40;98896.16;;;21.48;50.17
11343;BME280;5726;42.160;24.746;2023-04-16T12:03:06;98893.38;;;21.45;50.50
11343;BME280;5726;42.160;24.746;2023-04-16T12:05:33;98887.06;;;21.70;49.74
11343;BME280;5726;42.160;24.746;2023-04-16T12:08:09;98890.44;;;21.57;47.68
11343;BME280;5726;42.160;24.746;2023-04-16T12:10:54;98893.81;;;21.47;47.22
11343;BME280;5726;42.160;24.746;2023-04-16T12:13:22;98905.03;;;21.42;47.03
11343;BME280;5726;42.160;24.746;2023-04-16T12:15:49;98885.97;;;21.09;48.10
11343;BME280;5726;42.160;24.746;2023-04-16T12:18:16;98884.31;;;20.72;51.17
11343;BME280;5726;42.160;24.746;2023-04-16T12:20:42;98887.97;;;20.83;50.95
11343;BME280;5726;42.160;24.746;2023-04-16T12:23:09;98880.47;;;20.51;52.32
11343;BME280;5726;42.160;24.746;2023-04-16T12:25:35;98888.88;;;19.91;56.28
11343;BME280;5726;42.160;24.746;2023-04-16T12:28:01;98874.25;;;19.54;60.31
11343;BME280;5726;42.160;24.746;2023-04-16T12:30:27;98879.91;;;19.46;65.25
11343;BME280;5726;42.160;24.746;2023-04-16T12:33:15;98870.72;;;19.54;65.21
11343;BME280;5726;42.160;24.746;2023-04-16T12:35:41;98865.16;;;19.24;65.88
11343;BME280;5726;42.160;24.746;2023-04-16T12:38:08;98874.44;;;19.05;66.78
11343;BME280;5726;42.160;24.746;2023-04-16T12:40:34;98859.47;;;18.95;67.43
11343;BME280;5726;42.160;24.746;2023-04-16T12:43:01;98857.41;;;18.70;72.02
11343;BME280;5726;42.160;24.746;2023-04-16T12:45:26;98840.81;;;18.75;75.30
11343;BME280;5726;42.160;24.746;2023-04-16T12:47:52;98837.13;;;18.83;76.55
11343;BME280;5726;42.160;24.746;2023-04-16T12:50:17;98827.25;;;19.13;70.49
11343;BME280;5726;42.160;24.746;2023-04-16T12:52:43;98828.88;;;18.98;67.60
11343;BME280;5726;42.160;24.746;2023-04-16T12:55:08;98829.63;;;19.14;62.86
11343;BME280;5726;42.160;24.746;2023-04-16T12:57:34;98830.81;;;19.17;63.77
11343;BME280;5726;42.160;24.746;2023-04-16T13:00:00;98842.81;;;19.57;67.46
11343;BME280;5726;42.160;24.746;2023-04-16T13:02:26;98844.06;;;19.85;66.33